Airfield :
LOGIN :

Register | Disclaimer

   EN    FR    IT 

 










Legend :    VFR   Marginal VFR   IFR   Intensive IFR   Very Intensive IFR
Visi :
Ceiling :
>= 8 km
>= 3000ft
5 to 8 km
1000 to 3000 ft
1500m to 5 km
500 to 1000 ft
800 to 1500m
200 to 500 ft
< 800m
< 200 ft
Symbols :   Thunderstorms  Fog  Heavy snow  Heavy precipitations  Wind > 20 kt
SIGMETs :     Misc.  Thunderstorms  Icing  Turbulence  Mountain Waves  Volcanic Ashes






- Airport Elevation : 755 ft
- IATA code : DRS


EDDC - Dresden Klotzsche

CURRENT METAR :
  • 291320Z AUTO 05009KT 020V080 9999 -SHRA BKN007 FEW///TCU 19/18 Q1015 RESHRA TEMPO SCT012

EXPIRED METARs :
  • 291250Z AUTO 06010KT 1600 1400 R04/1900N SHRA BR BKN007 FEW///CB 18/17 Q1016 BECMG 9999 NSW
  • 291220Z AUTO 06009KT 9999 VCSH BKN006 BKN021 BKN028 FEW///TCU 19/17 Q1016
  • 291150Z AUTO 06011KT 9999 BKN007 OVC023 20/17 Q1017 TEMPO RA SCT012
  • 291120Z AUTO 07012KT 9999 BKN006 BKN012 OVC025 19/17 Q1017 TEMPO RA SCT012
  • 291050Z AUTO 05011KT 9999 BKN007 BKN010 OVC017 19/16 Q1017 TEMPO SCT012

TAF TAF EDDC
Valid from the 29 at 12:00 until the 30 at 12:00 UTC


291100Z 2912/3012 08006KT 9000 BKN007
TEMPO 2912/2915 RA SCT012
TEMPO 2915/2922 3500 SHRA BKN020CB
PROB30
TEMPO 2917/2924 2500 TSRA SCT008 BKN020CB
BECMG 2922/2924 36005KT 3500 BR
BECMG 3001/3003 26004KT 1300 BR BKN004
BECMG 3004/3007 9999 BKN011
BECMG 3008/3010 BKN035



MET'MAP, your aeronautical weather chart ! - Copyright ORBIFLY December 2007 - Disclaimer

ORBIFLY MET'MAP TEAM :

Programming & Development : Alexandra Zaïnal
Original concept : Baudouin d'Aumeries
Technical & hardware support : Manuel Goepfert
Assistance : Marc-Olivier Méhu




SOURCES & CREDITS :

   NOAA